sensor_id;sensor_type;location;lat;lon;timestamp;P1;durP1;ratioP1;P2;durP2;ratioP2
59008;SDS011;44794;42.652;23.318;2022-11-03T00:04:43;12.85;;;5.10;;
59008;SDS011;44794;42.652;23.318;2022-11-03T00:07:09;16.45;;;4.80;;
59008;SDS011;44794;42.652;23.318;2022-11-03T00:09:37;14.70;;;4.97;;
59008;SDS011;44794;42.652;23.318;2022-11-03T00:12:03;10.48;;;5.47;;
59008;SDS011;44794;42.652;23.318;2022-11-03T00:14:28;10.18;;;4.88;;
59008;SDS011;44794;42.652;23.318;2022-11-03T00:16:54;13.43;;;5.00;;
59008;SDS011;44794;42.652;23.318;2022-11-03T00:19:19;9.43;;;5.10;;
59008;SDS011;44794;42.652;23.318;2022-11-03T00:21:51;11.93;;;5.10;;
59008;SDS011;44794;42.652;23.318;2022-11-03T00:24:16;8.73;;;5.07;;
59008;SDS011;44794;42.652;23.318;2022-11-03T00:26:51;13.82;;;4.82;;
59008;SDS011;44794;42.652;23.318;2022-11-03T00:29:16;10.88;;;4.85;;
59008;SDS011;44794;42.652;23.318;2022-11-03T00:31:43;12.95;;;4.90;;
59008;SDS011;44794;42.652;23.318;2022-11-03T00:34:09;14.18;;;4.95;;
59008;SDS011;44794;42.652;23.318;2022-11-03T00:36:53;10.70;;;5.22;;
59008;SDS011;44794;42.652;23.318;2022-11-03T00:39:18;14.18;;;5.07;;
59008;SDS011;44794;42.652;23.318;2022-11-03T00:41:44;11.63;;;5.10;;
59008;SDS011;44794;42.652;23.318;2022-11-03T00:44:09;9.95;;;5.22;;
59008;SDS011;44794;42.652;23.318;2022-11-03T00:46:52;11.90;;;5.82;;
59008;SDS011;44794;42.652;23.318;2022-11-03T00:51:46;10.43;;;5.25;;
59008;SDS011;44794;42.652;23.318;2022-11-03T00:54:12;14.45;;;5.40;;
59008;SDS011;44794;42.652;23.318;2022-11-03T00:56:38;12.57;;;5.57;;
59008;SDS011;44794;42.652;23.318;2022-11-03T00:59:06;13.40;;;5.00;;
59008;SDS011;44794;42.652;23.318;2022-11-03T01:01:33;13.18;;;5.40;;
59008;SDS011;44794;42.652;23.318;2022-11-03T01:04:06;12.68;;;5.40;;
59008;SDS011;44794;42.652;23.318;2022-11-03T01:06:51;12.10;;;5.72;;
59008;SDS011;44794;42.652;23.318;2022-11-03T01:11:57;14.98;;;5.55;;
59008;SDS011;44794;42.652;23.318;2022-11-03T01:14:23;12.32;;;6.13;;
59008;SDS011;44794;42.652;23.318;2022-11-03T01:16:53;17.85;;;6.50;;
59008;SDS011;44794;42.652;23.318;2022-11-03T01:19:19;9.18;;;5.45;;
59008;SDS011;44794;42.652;23.318;2022-11-03T01:21:45;12.38;;;5.90;;
59008;SDS011;44794;42.652;23.318;2022-11-03T01:24:10;14.07;;;6.40;;
59008;SDS011;44794;42.652;23.318;2022-11-03T01:26:54;13.65;;;6.40;;
59008;SDS011;44794;42.652;23.318;2022-11-03T01:29:19;11.95;;;6.55;;
59008;SDS011;44794;42.652;23.318;2022-11-03T01:31:48;14.20;;;6.57;;
59008;SDS011;44794;42.652;23.318;2022-11-03T01:34:14;14.63;;;6.28;;
59008;SDS011;44794;42.652;23.318;2022-11-03T01:36:52;18.40;;;6.72;;
59008;SDS011;44794;42.652;23.318;2022-11-03T01:39:18;14.52;;;5.60;;
59008;SDS011;44794;42.652;23.318;2022-11-03T01:41:53;10.15;;;6.00;;
59008;SDS011;44794;42.652;23.318;2022-11-03T01:49:26;11.07;;;6.03;;
59008;SDS011;44794;42.652;23.318;2022-11-03T01:52:15;13.88;;;6.05;;
59008;SDS011;44794;42.652;23.318;2022-11-03T01:54:47;15.73;;;6.32;;
59008;SDS011;44794;42.652;23.318;2022-11-03T01:57:19;16.42;;;6.70;;
59008;SDS011;44794;42.652;23.318;2022-11-03T02:05:26;15.38;;;7.05;;
59008;SDS011;44794;42.652;23.318;2022-11-03T02:08:00;14.57;;;7.75;;
59008;SDS011;44794;42.652;23.318;2022-11-03T02:11:05;17.60;;;8.55;;
59008;SDS011;44794;42.652;23.318;2022-11-03T02:13:50;16.92;;;9.13;;
59008;SDS011;44794;42.652;23.318;2022-11-03T02:16:16;18.02;;;9.55;;
59008;SDS011;44794;42.652;23.318;2022-11-03T02:18:43;16.23;;;9.10;;
59008;SDS011;44794;42.652;23.318;2022-11-03T02:27:21;19.20;;;9.88;;
59008;SDS011;44794;42.652;23.318;2022-11-03T02:30:05;21.88;;;9.55;;
59008;SDS011;44794;42.652;23.318;2022-11-03T02:32:32;20.13;;;9.93;;
59008;SDS011;44794;42.652;23.318;2022-11-03T02:37:53;19.23;;;9.38;;
59008;SDS011;44794;42.652;23.318;2022-11-03T02:40:29;22.17;;;9.57;;
59008;SDS011;44794;42.652;23.318;2022-11-03T02:42:58;18.48;;;9.32;;
59008;SDS011;44794;42.652;23.318;2022-11-03T02:45:26;23.27;;;10.55;;
59008;SDS011;44794;42.652;23.318;2022-11-03T02:47:54;18.17;;;10.00;;
59008;SDS011;44794;42.652;23.318;2022-11-03T02:50:26;21.70;;;9.82;;
59008;SDS011;44794;42.652;23.318;2022-11-03T03:04:26;20.30;;;9.13;;
59008;SDS011;44794;42.652;23.318;2022-11-03T03:09:26;22.33;;;8.65;;
59008;SDS011;44794;42.652;23.318;2022-11-03T03:11:56;17.25;;;9.07;;
59008;SDS011;44794;42.652;23.318;2022-11-03T03:14:25;23.88;;;9.35;;
59008;SDS011;44794;42.652;23.318;2022-11-03T03:16:59;19.13;;;8.93;;
59008;SDS011;44794;42.652;23.318;2022-11-03T03:22:27;18.58;;;9.13;;
59008;SDS011;44794;42.652;23.318;2022-11-03T03:28:02;20.38;;;9.18;;
59008;SDS011;44794;42.652;23.318;2022-11-03T03:30:32;18.48;;;9.40;;
59008;SDS011;44794;42.652;23.318;2022-11-03T03:33:00;19.30;;;9.38;;
59008;SDS011;44794;42.652;23.318;2022-11-03T03:35:28;14.90;;;8.85;;
59008;SDS011;44794;42.652;23.318;2022-11-03T03:38:03;17.27;;;9.10;;
59008;SDS011;44794;42.652;23.318;2022-11-03T03:40:41;19.05;;;8.90;;
59008;SDS011;44794;42.652;23.318;2022-11-03T03:43:18;15.43;;;9.07;;
59008;SDS011;44794;42.652;23.318;2022-11-03T03:45:46;19.98;;;8.95;;
59008;SDS011;44794;42.652;23.318;2022-11-03T03:48:14;21.00;;;9.18;;
59008;SDS011;44794;42.652;23.318;2022-11-03T03:50:55;21.60;;;9.88;;
59008;SDS011;44794;42.652;23.318;2022-11-03T03:53:22;21.23;;;9.23;;
59008;SDS011;44794;42.652;23.318;2022-11-03T03:55:52;15.73;;;8.90;;
59008;SDS011;44794;42.652;23.318;2022-11-03T03:58:18;24.00;;;9.55;;
59008;SDS011;44794;42.652;23.318;2022-11-03T04:01:02;21.38;;;10.02;;
59008;SDS011;44794;42.652;23.318;2022-11-03T04:03:27;22.90;;;10.32;;
59008;SDS011;44794;42.652;23.318;2022-11-03T04:05:59;20.80;;;10.43;;
59008;SDS011;44794;42.652;23.318;2022-11-03T04:08:25;19.50;;;10.27;;
59008;SDS011;44794;42.652;23.318;2022-11-03T04:10:50;21.45;;;10.60;;
59008;SDS011;44794;42.652;23.318;2022-11-03T04:13:37;18.75;;;10.32;;
59008;SDS011;44794;42.652;23.318;2022-11-03T04:16:21;22.00;;;11.05;;
59008;SDS011;44794;42.652;23.318;2022-11-03T04:19:05;20.90;;;9.63;;
59008;SDS011;44794;42.652;23.318;2022-11-03T04:21:59;21.02;;;9.75;;
59008;SDS011;44794;42.652;23.318;2022-11-03T04:24:58;19.88;;;9.93;;
59008;SDS011;44794;42.652;23.318;2022-11-03T04:30:05;23.20;;;10.55;;
59008;SDS011;44794;42.652;23.318;2022-11-03T04:32:47;23.80;;;10.40;;
59008;SDS011;44794;42.652;23.318;2022-11-03T04:35:15;23.40;;;11.07;;
59008;SDS011;44794;42.652;23.318;2022-11-03T04:38:02;24.08;;;11.55;;
59008;SDS011;44794;42.652;23.318;2022-11-03T04:43:32;19.88;;;10.73;;
59008;SDS011;44794;42.652;23.318;2022-11-03T04:45:59;24.35;;;11.52;;
59008;SDS011;44794;42.652;23.318;2022-11-03T04:48:26;25.27;;;12.38;;
59008;SDS011;44794;42.652;23.318;2022-11-03T04:50:53;27.20;;;12.52;;
59008;SDS011;44794;42.652;23.318;2022-11-03T04:53:22;25.17;;;11.60;;
59008;SDS011;44794;42.652;23.318;2022-11-03T04:56:00;22.30;;;11.00;;
59008;SDS011;44794;42.652;23.318;2022-11-03T04:58:31;25.55;;;11.07;;
59008;SDS011;44794;42.652;23.318;2022-11-03T05:00:59;25.75;;;11.93;;
59008;SDS011;44794;42.652;23.318;2022-11-03T05:03:30;22.83;;;11.27;;
59008;SDS011;44794;42.652;23.318;2022-11-03T05:05:57;22.92;;;12.30;;
59008;SDS011;44794;42.652;23.318;2022-11-03T05:14:40;21.80;;;11.07;;
59008;SDS011;44794;42.652;23.318;2022-11-03T05:16:50;23.67;;;11.93;;
59008;SDS011;44794;42.652;23.318;2022-11-03T05:19:21;27.55;;;13.18;;
59008;SDS011;44794;42.652;23.318;2022-11-03T05:21:50;28.50;;;13.32;;
59008;SDS011;44794;42.652;23.318;2022-11-03T05:24:18;27.67;;;12.75;;
59008;SDS011;44794;42.652;23.318;2022-11-03T05:26:45;27.88;;;14.02;;
59008;SDS011;44794;42.652;23.318;2022-11-03T05:29:18;27.70;;;12.15;;
59008;SDS011;44794;42.652;23.318;2022-11-03T05:31:45;29.90;;;12.48;;
59008;SDS011;44794;42.652;23.318;2022-11-03T05:39:42;37.53;;;17.17;;
59008;SDS011;44794;42.652;23.318;2022-11-03T05:44:48;41.50;;;18.85;;
59008;SDS011;44794;42.652;23.318;2022-11-03T05:49:50;37.22;;;19.63;;
59008;SDS011;44794;42.652;23.318;2022-11-03T05:52:20;35.40;;;17.83;;
59008;SDS011;44794;42.652;23.318;2022-11-03T05:57:15;36.15;;;17.83;;
59008;SDS011;44794;42.652;23.318;2022-11-03T05:59:42;47.33;;;20.95;;
59008;SDS011;44794;42.652;23.318;2022-11-03T06:02:43;36.55;;;17.80;;
59008;SDS011;44794;42.652;23.318;2022-11-03T06:05:11;37.72;;;19.45;;
59008;SDS011;44794;42.652;23.318;2022-11-03T06:07:43;46.92;;;20.02;;
59008;SDS011;44794;42.652;23.318;2022-11-03T06:10:20;54.38;;;19.38;;
59008;SDS011;44794;42.652;23.318;2022-11-03T06:12:48;49.92;;;17.88;;
59008;SDS011;44794;42.652;23.318;2022-11-03T06:15:48;38.90;;;15.73;;
59008;SDS011;44794;42.652;23.318;2022-11-03T06:18:21;41.15;;;17.33;;
59008;SDS011;44794;42.652;23.318;2022-11-03T06:20:52;38.67;;;16.33;;
59008;SDS011;44794;42.652;23.318;2022-11-03T06:23:20;32.78;;;15.73;;
59008;SDS011;44794;42.652;23.318;2022-11-03T06:25:48;32.35;;;15.73;;
59008;SDS011;44794;42.652;23.318;2022-11-03T06:28:24;36.05;;;16.65;;
59008;SDS011;44794;42.652;23.318;2022-11-03T06:30:54;34.15;;;16.65;;
59008;SDS011;44794;42.652;23.318;2022-11-03T06:33:24;33.30;;;16.25;;
59008;SDS011;44794;42.652;23.318;2022-11-03T06:35:53;39.83;;;18.15;;
59008;SDS011;44794;42.652;23.318;2022-11-03T06:38:24;31.92;;;16.73;;
59008;SDS011;44794;42.652;23.318;2022-11-03T06:40:53;44.20;;;17.80;;
59008;SDS011;44794;42.652;23.318;2022-11-03T06:43:21;41.28;;;19.27;;
59008;SDS011;44794;42.652;23.318;2022-11-03T06:45:53;40.83;;;18.60;;
59008;SDS011;44794;42.652;23.318;2022-11-03T06:48:22;36.45;;;18.75;;
59008;SDS011;44794;42.652;23.318;2022-11-03T06:50:59;33.38;;;17.20;;
59008;SDS011;44794;42.652;23.318;2022-11-03T06:53:28;34.28;;;18.13;;
59008;SDS011;44794;42.652;23.318;2022-11-03T06:55:56;38.00;;;17.92;;
59008;SDS011;44794;42.652;23.318;2022-11-03T06:58:27;34.22;;;17.70;;
59008;SDS011;44794;42.652;23.318;2022-11-03T07:01:11;32.45;;;17.27;;
59008;SDS011;44794;42.652;23.318;2022-11-03T07:06:37;39.75;;;17.90;;
59008;SDS011;44794;42.652;23.318;2022-11-03T07:09:03;40.72;;;18.25;;
59008;SDS011;44794;42.652;23.318;2022-11-03T07:14:29;41.05;;;19.50;;
59008;SDS011;44794;42.652;23.318;2022-11-03T07:17:16;45.78;;;20.60;;
59008;SDS011;44794;42.652;23.318;2022-11-03T07:19:49;40.80;;;20.00;;
59008;SDS011;44794;42.652;23.318;2022-11-03T07:22:24;38.30;;;19.58;;
59008;SDS011;44794;42.652;23.318;2022-11-03T07:24:54;43.13;;;20.15;;
59008;SDS011;44794;42.652;23.318;2022-11-03T07:27:56;34.47;;;18.13;;
59008;SDS011;44794;42.652;23.318;2022-11-03T07:30:20;38.67;;;19.50;;
59008;SDS011;44794;42.652;23.318;2022-11-03T07:32:59;35.17;;;18.52;;
59008;SDS011;44794;42.652;23.318;2022-11-03T07:38:01;35.85;;;19.05;;
59008;SDS011;44794;42.652;23.318;2022-11-03T07:40:36;43.80;;;18.85;;
59008;SDS011;44794;42.652;23.318;2022-11-03T07:43:13;33.25;;;17.02;;
59008;SDS011;44794;42.652;23.318;2022-11-03T07:45:54;35.47;;;17.25;;
59008;SDS011;44794;42.652;23.318;2022-11-03T07:48:22;36.65;;;17.45;;
59008;SDS011;44794;42.652;23.318;2022-11-03T07:51:05;34.53;;;17.38;;
59008;SDS011;44794;42.652;23.318;2022-11-03T07:53:44;31.95;;;17.90;;
59008;SDS011;44794;42.652;23.318;2022-11-03T07:56:19;36.17;;;17.17;;
59008;SDS011;44794;42.652;23.318;2022-11-03T07:58:46;42.05;;;17.83;;
59008;SDS011;44794;42.652;23.318;2022-11-03T08:01:21;37.08;;;17.77;;
59008;SDS011;44794;42.652;23.318;2022-11-03T08:03:49;31.95;;;17.73;;
59008;SDS011;44794;42.652;23.318;2022-11-03T08:06:15;36.70;;;17.10;;
59008;SDS011;44794;42.652;23.318;2022-11-03T08:08:43;30.35;;;16.00;;
59008;SDS011;44794;42.652;23.318;2022-11-03T08:11:09;35.55;;;16.55;;
59008;SDS011;44794;42.652;23.318;2022-11-03T08:13:37;26.45;;;14.45;;
59008;SDS011;44794;42.652;23.318;2022-11-03T08:16:02;29.92;;;16.38;;
59008;SDS011;44794;42.652;23.318;2022-11-03T08:18:28;33.28;;;18.10;;
59008;SDS011;44794;42.652;23.318;2022-11-03T08:20:53;37.47;;;17.35;;
59008;SDS011;44794;42.652;23.318;2022-11-03T08:23:19;39.65;;;17.55;;
59008;SDS011;44794;42.652;23.318;2022-11-03T08:25:54;38.70;;;18.65;;
59008;SDS011;44794;42.652;23.318;2022-11-03T08:28:19;35.95;;;17.48;;
59008;SDS011;44794;42.652;23.318;2022-11-03T08:33:42;33.80;;;17.02;;
59008;SDS011;44794;42.652;23.318;2022-11-03T08:36:08;32.85;;;16.67;;
59008;SDS011;44794;42.652;23.318;2022-11-03T08:41:28;31.38;;;15.95;;
59008;SDS011;44794;42.652;23.318;2022-11-03T08:43:53;30.83;;;15.57;;
59008;SDS011;44794;42.652;23.318;2022-11-03T08:46:19;29.63;;;14.70;;
59008;SDS011;44794;42.652;23.318;2022-11-03T08:48:50;36.70;;;15.60;;
59008;SDS011;44794;42.652;23.318;2022-11-03T08:51:16;29.20;;;15.38;;
59008;SDS011;44794;42.652;23.318;2022-11-03T08:53:41;30.85;;;16.20;;
59008;SDS011;44794;42.652;23.318;2022-11-03T08:56:07;33.53;;;15.95;;
59008;SDS011;44794;42.652;23.318;2022-11-03T08:58:33;33.13;;;16.33;;
59008;SDS011;44794;42.652;23.318;2022-11-03T09:00:58;28.77;;;15.95;;
59008;SDS011;44794;42.652;23.318;2022-11-03T09:03:24;32.17;;;15.20;;
59008;SDS011;44794;42.652;23.318;2022-11-03T09:06:07;28.55;;;15.52;;
59008;SDS011;44794;42.652;23.318;2022-11-03T09:08:49;35.70;;;16.73;;
59008;SDS011;44794;42.652;23.318;2022-11-03T09:11:14;35.40;;;16.35;;
59008;SDS011;44794;42.652;23.318;2022-11-03T09:13:43;31.42;;;16.35;;
59008;SDS011;44794;42.652;23.318;2022-11-03T09:16:08;32.10;;;16.00;;
59008;SDS011;44794;42.652;23.318;2022-11-03T09:18:34;33.92;;;16.50;;
59008;SDS011;44794;42.652;23.318;2022-11-03T09:20:59;32.40;;;16.92;;
59008;SDS011;44794;42.652;23.318;2022-11-03T09:23:25;36.92;;;16.45;;
59008;SDS011;44794;42.652;23.318;2022-11-03T09:25:50;34.97;;;15.90;;
59008;SDS011;44794;42.652;23.318;2022-11-03T09:28:16;33.35;;;15.75;;
59008;SDS011;44794;42.652;23.318;2022-11-03T09:30:42;28.40;;;15.40;;
59008;SDS011;44794;42.652;23.318;2022-11-03T09:33:07;32.05;;;14.98;;
59008;SDS011;44794;42.652;23.318;2022-11-03T09:35:33;28.83;;;15.52;;
59008;SDS011;44794;42.652;23.318;2022-11-03T09:37:58;30.42;;;15.88;;
59008;SDS011;44794;42.652;23.318;2022-11-03T09:40:23;29.52;;;15.27;;
59008;SDS011;44794;42.652;23.318;2022-11-03T09:42:49;33.05;;;16.13;;
59008;SDS011;44794;42.652;23.318;2022-11-03T09:45:15;29.20;;;16.08;;
59008;SDS011;44794;42.652;23.318;2022-11-03T09:47:44;37.10;;;15.85;;
59008;SDS011;44794;42.652;23.318;2022-11-03T09:50:13;37.13;;;16.52;;
59008;SDS011;44794;42.652;23.318;2022-11-03T09:52:41;45.08;;;17.70;;
59008;SDS011;44794;42.652;23.318;2022-11-03T09:55:17;49.05;;;17.13;;
59008;SDS011;44794;42.652;23.318;2022-11-03T09:57:47;40.70;;;16.93;;
59008;SDS011;44794;42.652;23.318;2022-11-03T10:00:15;39.38;;;15.10;;
59008;SDS011;44794;42.652;23.318;2022-11-03T10:02:42;25.45;;;14.40;;
59008;SDS011;44794;42.652;23.318;2022-11-03T10:05:08;31.88;;;15.63;;
59008;SDS011;44794;42.652;23.318;2022-11-03T10:07:42;30.10;;;15.13;;
59008;SDS011;44794;42.652;23.318;2022-11-03T10:10:13;29.13;;;14.73;;
59008;SDS011;44794;42.652;23.318;2022-11-03T10:12:42;35.30;;;14.55;;
59008;SDS011;44794;42.652;23.318;2022-11-03T10:15:12;39.22;;;14.05;;
59008;SDS011;44794;42.652;23.318;2022-11-03T10:17:41;34.05;;;14.13;;
59008;SDS011;44794;42.652;23.318;2022-11-03T10:20:09;33.58;;;13.90;;
59008;SDS011;44794;42.652;23.318;2022-11-03T10:22:40;29.17;;;13.70;;
59008;SDS011;44794;42.652;23.318;2022-11-03T10:25:26;29.75;;;12.63;;
59008;SDS011;44794;42.652;23.318;2022-11-03T10:28:12;28.88;;;12.70;;
59008;SDS011;44794;42.652;23.318;2022-11-03T10:33:25;25.35;;;11.15;;
59008;SDS011;44794;42.652;23.318;2022-11-03T10:35:55;25.13;;;10.95;;
59008;SDS011;44794;42.652;23.318;2022-11-03T10:38:26;22.95;;;9.93;;
59008;SDS011;44794;42.652;23.318;2022-11-03T10:41:08;20.40;;;9.93;;
59008;SDS011;44794;42.652;23.318;2022-11-03T10:43:57;23.10;;;9.70;;
59008;SDS011;44794;42.652;23.318;2022-11-03T10:46:54;24.27;;;9.68;;
59008;SDS011;44794;42.652;23.318;2022-11-03T10:49:24;27.80;;;10.50;;
59008;SDS011;44794;42.652;23.318;2022-11-03T10:51:51;28.00;;;11.45;;
59008;SDS011;44794;42.652;23.318;2022-11-03T10:54:18;18.45;;;8.55;;
59008;SDS011;44794;42.652;23.318;2022-11-03T10:56:46;17.40;;;8.73;;
59008;SDS011;44794;42.652;23.318;2022-11-03T10:59:20;21.00;;;10.25;;
59008;SDS011;44794;42.652;23.318;2022-11-03T11:01:56;18.98;;;9.07;;
59008;SDS011;44794;42.652;23.318;2022-11-03T11:04:22;23.55;;;8.85;;
59008;SDS011;44794;42.652;23.318;2022-11-03T11:06:47;25.10;;;8.93;;
59008;SDS011;44794;42.652;23.318;2022-11-03T11:09:14;16.02;;;8.15;;
59008;SDS011;44794;42.652;23.318;2022-11-03T11:14:51;22.10;;;8.23;;
59008;SDS011;44794;42.652;23.318;2022-11-03T11:28:33;20.02;;;6.88;;
59008;SDS011;44794;42.652;23.318;2022-11-03T11:33:46;16.70;;;5.90;;
59008;SDS011;44794;42.652;23.318;2022-11-03T11:36:19;14.27;;;3.78;;
59008;SDS011;44794;42.652;23.318;2022-11-03T11:41:13;15.07;;;4.55;;
59008;SDS011;44794;42.652;23.318;2022-11-03T11:43:44;12.73;;;3.30;;
59008;SDS011;44794;42.652;23.318;2022-11-03T11:51:31;14.20;;;4.57;;
59008;SDS011;44794;42.652;23.318;2022-11-03T11:56:24;13.43;;;4.82;;
59008;SDS011;44794;42.652;23.318;2022-11-03T11:58:50;13.60;;;4.63;;
59008;SDS011;44794;42.652;23.318;2022-11-03T12:01:20;14.35;;;4.75;;
59008;SDS011;44794;42.652;23.318;2022-11-03T12:03:53;17.77;;;5.63;;
59008;SDS011;44794;42.652;23.318;2022-11-03T12:06:37;19.95;;;5.15;;
59008;SDS011;44794;42.652;23.318;2022-11-03T12:09:13;24.48;;;5.22;;
59008;SDS011;44794;42.652;23.318;2022-11-03T12:11:49;18.65;;;5.18;;
59008;SDS011;44794;42.652;23.318;2022-11-03T12:14:21;14.95;;;5.22;;
59008;SDS011;44794;42.652;23.318;2022-11-03T12:16:52;21.77;;;5.68;;
59008;SDS011;44794;42.652;23.318;2022-11-03T12:22:09;20.30;;;5.93;;
59008;SDS011;44794;42.652;23.318;2022-11-03T12:25:03;14.25;;;5.28;;
59008;SDS011;44794;42.652;23.318;2022-11-03T12:30:13;15.27;;;4.75;;
59008;SDS011;44794;42.652;23.318;2022-11-03T12:32:59;19.80;;;4.50;;
59008;SDS011;44794;42.652;23.318;2022-11-03T12:35:24;18.60;;;5.57;;
59008;SDS011;44794;42.652;23.318;2022-11-03T12:37:50;14.45;;;4.93;;
59008;SDS011;44794;42.652;23.318;2022-11-03T12:40:15;20.00;;;5.15;;
59008;SDS011;44794;42.652;23.318;2022-11-03T12:42:41;20.52;;;5.25;;
59008;SDS011;44794;42.652;23.318;2022-11-03T12:45:06;21.15;;;6.47;;
59008;SDS011;44794;42.652;23.318;2022-11-03T12:47:32;21.88;;;6.50;;
59008;SDS011;44794;42.652;23.318;2022-11-03T12:49:58;22.08;;;5.95;;
59008;SDS011;44794;42.652;23.318;2022-11-03T12:52:23;14.77;;;5.55;;
59008;SDS011;44794;42.652;23.318;2022-11-03T12:54:49;20.42;;;6.15;;
59008;SDS011;44794;42.652;23.318;2022-11-03T12:57:14;15.63;;;5.80;;
59008;SDS011;44794;42.652;23.318;2022-11-03T12:59:40;17.02;;;5.90;;
59008;SDS011;44794;42.652;23.318;2022-11-03T13:02:06;18.42;;;5.72;;
59008;SDS011;44794;42.652;23.318;2022-11-03T13:04:45;15.25;;;5.68;;
59008;SDS011;44794;42.652;23.318;2022-11-03T13:07:11;20.65;;;6.35;;
59008;SDS011;44794;42.652;23.318;2022-11-03T13:09:36;18.50;;;5.80;;
59008;SDS011;44794;42.652;23.318;2022-11-03T13:12:02;20.00;;;5.65;;
59008;SDS011;44794;42.652;23.318;2022-11-03T13:14:46;16.27;;;5.80;;
59008;SDS011;44794;42.652;23.318;2022-11-03T13:17:11;17.02;;;5.63;;
59008;SDS011;44794;42.652;23.318;2022-11-03T13:19:40;15.40;;;5.32;;
59008;SDS011;44794;42.652;23.318;2022-11-03T13:22:05;18.17;;;5.22;;
59008;SDS011;44794;42.652;23.318;2022-11-03T13:24:31;13.50;;;5.70;;
59008;SDS011;44794;42.652;23.318;2022-11-03T13:26:56;19.98;;;6.00;;
59008;SDS011;44794;42.652;23.318;2022-11-03T13:29:22;17.85;;;6.13;;
59008;SDS011;44794;42.652;23.318;2022-11-03T13:31:47;24.40;;;5.85;;
59008;SDS011;44794;42.652;23.318;2022-11-03T13:34:13;17.30;;;6.20;;
59008;SDS011;44794;42.652;23.318;2022-11-03T13:36:38;18.42;;;5.75;;
59008;SDS011;44794;42.652;23.318;2022-11-03T13:39:04;20.83;;;5.82;;
59008;SDS011;44794;42.652;23.318;2022-11-03T13:41:29;18.08;;;5.68;;
59008;SDS011;44794;42.652;23.318;2022-11-03T13:43:55;21.17;;;5.95;;
59008;SDS011;44794;42.652;23.318;2022-11-03T13:46:20;17.50;;;5.65;;
59008;SDS011;44794;42.652;23.318;2022-11-03T13:48:45;16.83;;;5.47;;
59008;SDS011;44794;42.652;23.318;2022-11-03T13:51:11;16.42;;;6.00;;
59008;SDS011;44794;42.652;23.318;2022-11-03T13:53:40;25.20;;;6.30;;
59008;SDS011;44794;42.652;23.318;2022-11-03T13:56:06;31.73;;;6.28;;
59008;SDS011;44794;42.652;23.318;2022-11-03T13:58:31;27.65;;;6.57;;
59008;SDS011;44794;42.652;23.318;2022-11-03T14:00:57;25.25;;;7.03;;
59008;SDS011;44794;42.652;23.318;2022-11-03T14:03:22;36.20;;;7.05;;
59008;SDS011;44794;42.652;23.318;2022-11-03T14:05:48;40.97;;;7.90;;
59008;SDS011;44794;42.652;23.318;2022-11-03T14:08:13;30.92;;;6.68;;
59008;SDS011;44794;42.652;23.318;2022-11-03T14:10:39;20.95;;;6.18;;
59008;SDS011;44794;42.652;23.318;2022-11-03T14:13:04;42.60;;;8.40;;
59008;SDS011;44794;42.652;23.318;2022-11-03T14:15:30;35.45;;;8.02;;
59008;SDS011;44794;42.652;23.318;2022-11-03T14:17:55;29.92;;;7.90;;
59008;SDS011;44794;42.652;23.318;2022-11-03T14:20:21;28.33;;;6.72;;
59008;SDS011;44794;42.652;23.318;2022-11-03T14:22:46;22.88;;;7.18;;
59008;SDS011;44794;42.652;23.318;2022-11-03T14:25:11;37.03;;;8.80;;
59008;SDS011;44794;42.652;23.318;2022-11-03T14:27:52;26.85;;;8.32;;
59008;SDS011;44794;42.652;23.318;2022-11-03T14:30:18;25.52;;;7.78;;
59008;SDS011;44794;42.652;23.318;2022-11-03T14:32:43;26.38;;;7.80;;
59008;SDS011;44794;42.652;23.318;2022-11-03T14:35:09;27.20;;;7.38;;
59008;SDS011;44794;42.652;23.318;2022-11-03T14:37:40;28.90;;;7.55;;
59008;SDS011;44794;42.652;23.318;2022-11-03T14:40:06;24.98;;;8.68;;
59008;SDS011;44794;42.652;23.318;2022-11-03T14:42:31;32.15;;;8.65;;
59008;SDS011;44794;42.652;23.318;2022-11-03T14:44:57;26.00;;;8.25;;
59008;SDS011;44794;42.652;23.318;2022-11-03T14:47:22;26.63;;;8.10;;
59008;SDS011;44794;42.652;23.318;2022-11-03T14:50:01;27.50;;;8.35;;
59008;SDS011;44794;42.652;23.318;2022-11-03T14:52:27;31.85;;;8.82;;
59008;SDS011;44794;42.652;23.318;2022-11-03T14:54:52;28.40;;;7.72;;
59008;SDS011;44794;42.652;23.318;2022-11-03T14:57:17;25.90;;;7.75;;
59008;SDS011;44794;42.652;23.318;2022-11-03T14:59:52;24.45;;;8.32;;
59008;SDS011;44794;42.652;23.318;2022-11-03T15:02:17;29.30;;;8.75;;
59008;SDS011;44794;42.652;23.318;2022-11-03T15:04:52;32.28;;;8.38;;
59008;SDS011;44794;42.652;23.318;2022-11-03T15:07:17;35.30;;;8.90;;
59008;SDS011;44794;42.652;23.318;2022-11-03T15:10:01;48.00;;;9.40;;
59008;SDS011;44794;42.652;23.318;2022-11-03T15:12:26;45.45;;;8.70;;
59008;SDS011;44794;42.652;23.318;2022-11-03T15:14:52;44.90;;;9.30;;
59008;SDS011;44794;42.652;23.318;2022-11-03T15:17:17;40.75;;;10.02;;
59008;SDS011;44794;42.652;23.318;2022-11-03T15:19:49;29.30;;;9.55;;
59008;SDS011;44794;42.652;23.318;2022-11-03T15:22:14;44.58;;;10.13;;
59008;SDS011;44794;42.652;23.318;2022-11-03T15:24:46;37.20;;;9.73;;
59008;SDS011;44794;42.652;23.318;2022-11-03T15:27:11;52.40;;;9.13;;
59008;SDS011;44794;42.652;23.318;2022-11-03T15:32:45;46.47;;;9.63;;
59008;SDS011;44794;42.652;23.318;2022-11-03T15:35:11;29.65;;;8.60;;
59008;SDS011;44794;42.652;23.318;2022-11-03T15:37:37;37.83;;;8.90;;
59008;SDS011;44794;42.652;23.318;2022-11-03T15:40:02;29.67;;;9.68;;
59008;SDS011;44794;42.652;23.318;2022-11-03T15:42:28;28.48;;;10.00;;
59008;SDS011;44794;42.652;23.318;2022-11-03T15:44:54;38.42;;;10.23;;
59008;SDS011;44794;42.652;23.318;2022-11-03T15:47:19;33.38;;;11.13;;
59008;SDS011;44794;42.652;23.318;2022-11-03T15:49:54;31.58;;;11.32;;
59008;SDS011;44794;42.652;23.318;2022-11-03T15:52:19;42.15;;;15.02;;
59008;SDS011;44794;42.652;23.318;2022-11-03T15:54:57;35.08;;;14.73;;
59008;SDS011;44794;42.652;23.318;2022-11-03T15:57:22;40.70;;;14.85;;
59008;SDS011;44794;42.652;23.318;2022-11-03T15:59:48;33.17;;;14.23;;
59008;SDS011;44794;42.652;23.318;2022-11-03T16:02:14;37.60;;;12.88;;
59008;SDS011;44794;42.652;23.318;2022-11-03T16:04:46;32.45;;;13.00;;
59008;SDS011;44794;42.652;23.318;2022-11-03T16:07:11;41.97;;;14.35;;
59008;SDS011;44794;42.652;23.318;2022-11-03T16:09:37;49.67;;;19.23;;
59008;SDS011;44794;42.652;23.318;2022-11-03T16:12:02;57.78;;;20.42;;
59008;SDS011;44794;42.652;23.318;2022-11-03T16:14:28;50.10;;;19.65;;
59008;SDS011;44794;42.652;23.318;2022-11-03T16:16:54;54.25;;;21.38;;
59008;SDS011;44794;42.652;23.318;2022-11-03T16:19:20;47.50;;;18.98;;
59008;SDS011;44794;42.652;23.318;2022-11-03T16:21:52;46.08;;;17.70;;
59008;SDS011;44794;42.652;23.318;2022-11-03T16:24:17;44.08;;;17.27;;
59008;SDS011;44794;42.652;23.318;2022-11-03T16:26:43;52.72;;;18.40;;
59008;SDS011;44794;42.652;23.318;2022-11-03T16:29:09;55.25;;;21.00;;
59008;SDS011;44794;42.652;23.318;2022-11-03T16:31:34;34.08;;;11.40;;
59008;SDS011;44794;42.652;23.318;2022-11-03T16:34:00;30.70;;;9.95;;
59008;SDS011;44794;42.652;23.318;2022-11-03T16:36:26;33.50;;;11.25;;
59008;SDS011;44794;42.652;23.318;2022-11-03T16:38:52;32.72;;;10.80;;